sensor_id;sensor_type;location;lat;lon;timestamp;P1;durP1;ratioP1;P2;durP2;ratioP2
665;SDS011;315;48.738;9.126;2023-04-25T00:01:16;4.20;;;2.97;;
665;SDS011;315;48.738;9.126;2023-04-25T00:03:42;2.40;;;2.20;;
665;SDS011;315;48.738;9.126;2023-04-25T00:06:07;2.63;;;2.43;;
665;SDS011;315;48.738;9.126;2023-04-25T00:08:33;3.70;;;3.40;;
665;SDS011;315;48.738;9.126;2023-04-25T00:10:59;3.20;;;2.83;;
665;SDS011;315;48.738;9.126;2023-04-25T00:13:25;4.63;;;2.83;;
665;SDS011;315;48.738;9.126;2023-04-25T00:15:51;3.17;;;2.50;;
665;SDS011;315;48.738;9.126;2023-04-25T00:18:21;4.00;;;2.80;;
665;SDS011;315;48.738;9.126;2023-04-25T00:20:47;2.70;;;2.50;;
665;SDS011;315;48.738;9.126;2023-04-25T00:23:16;2.90;;;2.70;;
665;SDS011;315;48.738;9.126;2023-04-25T00:25:45;3.10;;;2.90;;
665;SDS011;315;48.738;9.126;2023-04-25T00:28:11;2.60;;;2.40;;
665;SDS011;315;48.738;9.126;2023-04-25T00:30:37;2.53;;;2.33;;
665;SDS011;315;48.738;9.126;2023-04-25T00:33:03;2.73;;;2.53;;
665;SDS011;315;48.738;9.126;2023-04-25T00:35:29;2.90;;;2.60;;
665;SDS011;315;48.738;9.126;2023-04-25T00:37:54;3.00;;;2.77;;
665;SDS011;315;48.738;9.126;2023-04-25T00:40:20;2.70;;;2.50;;
665;SDS011;315;48.738;9.126;2023-04-25T00:42:46;2.40;;;2.20;;
665;SDS011;315;48.738;9.126;2023-04-25T00:45:13;3.20;;;2.90;;
665;SDS011;315;48.738;9.126;2023-04-25T00:47:42;2.50;;;2.30;;
665;SDS011;315;48.738;9.126;2023-04-25T00:50:08;2.67;;;2.43;;
665;SDS011;315;48.738;9.126;2023-04-25T00:52:34;2.80;;;2.60;;
665;SDS011;315;48.738;9.126;2023-04-25T00:55:01;4.60;;;2.70;;
665;SDS011;315;48.738;9.126;2023-04-25T00:57:26;2.23;;;2.03;;
665;SDS011;315;48.738;9.126;2023-04-25T00:59:53;2.57;;;2.37;;
665;SDS011;315;48.738;9.126;2023-04-25T01:02:20;2.93;;;2.73;;
665;SDS011;315;48.738;9.126;2023-04-25T01:04:46;2.83;;;2.63;;
665;SDS011;315;48.738;9.126;2023-04-25T01:07:13;3.03;;;2.73;;
665;SDS011;315;48.738;9.126;2023-04-25T01:09:39;3.27;;;2.97;;
665;SDS011;315;48.738;9.126;2023-04-25T01:12:06;3.83;;;3.00;;
665;SDS011;315;48.738;9.126;2023-04-25T01:14:31;6.90;;;2.80;;
665;SDS011;315;48.738;9.126;2023-04-25T01:16:57;3.37;;;3.07;;
665;SDS011;315;48.738;9.126;2023-04-25T01:19:23;4.37;;;3.13;;
665;SDS011;315;48.738;9.126;2023-04-25T01:21:49;3.23;;;2.93;;
665;SDS011;315;48.738;9.126;2023-04-25T01:24:16;3.60;;;2.77;;
665;SDS011;315;48.738;9.126;2023-04-25T01:26:42;3.50;;;3.00;;
665;SDS011;315;48.738;9.126;2023-04-25T01:29:14;4.67;;;3.57;;
665;SDS011;315;48.738;9.126;2023-04-25T01:31:43;3.40;;;2.93;;
665;SDS011;315;48.738;9.126;2023-04-25T01:34:09;4.40;;;3.13;;
665;SDS011;315;48.738;9.126;2023-04-25T01:36:35;3.07;;;2.83;;
665;SDS011;315;48.738;9.126;2023-04-25T01:39:01;3.07;;;2.87;;
665;SDS011;315;48.738;9.126;2023-04-25T01:41:27;4.10;;;3.70;;
665;SDS011;315;48.738;9.126;2023-04-25T01:43:53;4.43;;;3.60;;
665;SDS011;315;48.738;9.126;2023-04-25T01:46:18;3.30;;;2.33;;
665;SDS011;315;48.738;9.126;2023-04-25T01:48:44;3.33;;;3.07;;
665;SDS011;315;48.738;9.126;2023-04-25T01:51:10;3.80;;;2.50;;
665;SDS011;315;48.738;9.126;2023-04-25T01:53:36;3.30;;;2.97;;
665;SDS011;315;48.738;9.126;2023-04-25T01:56:03;6.27;;;3.23;;
665;SDS011;315;48.738;9.126;2023-04-25T01:58:28;4.93;;;3.50;;
665;SDS011;315;48.738;9.126;2023-04-25T02:00:54;3.43;;;3.13;;
665;SDS011;315;48.738;9.126;2023-04-25T02:03:19;3.37;;;3.07;;
665;SDS011;315;48.738;9.126;2023-04-25T02:05:45;3.30;;;2.87;;
665;SDS011;315;48.738;9.126;2023-04-25T02:08:11;3.63;;;3.33;;
665;SDS011;315;48.738;9.126;2023-04-25T02:10:36;3.83;;;3.50;;
665;SDS011;315;48.738;9.126;2023-04-25T02:13:02;3.37;;;3.07;;
665;SDS011;315;48.738;9.126;2023-04-25T02:15:30;3.40;;;3.13;;
665;SDS011;315;48.738;9.126;2023-04-25T02:17:55;2.80;;;2.50;;
665;SDS011;315;48.738;9.126;2023-04-25T02:20:21;4.10;;;2.80;;
665;SDS011;315;48.738;9.126;2023-04-25T02:22:47;5.23;;;2.97;;
665;SDS011;315;48.738;9.126;2023-04-25T02:25:12;2.60;;;2.40;;
665;SDS011;315;48.738;9.126;2023-04-25T02:27:38;5.53;;;3.10;;
665;SDS011;315;48.738;9.126;2023-04-25T02:30:04;2.97;;;2.67;;
665;SDS011;315;48.738;9.126;2023-04-25T02:32:31;3.10;;;2.90;;
665;SDS011;315;48.738;9.126;2023-04-25T02:34:57;2.40;;;2.17;;
665;SDS011;315;48.738;9.126;2023-04-25T02:37:28;2.90;;;2.70;;
665;SDS011;315;48.738;9.126;2023-04-25T02:39:57;5.07;;;2.87;;
665;SDS011;315;48.738;9.126;2023-04-25T02:42:23;3.30;;;2.73;;
665;SDS011;315;48.738;9.126;2023-04-25T02:44:48;2.20;;;2.00;;
665;SDS011;315;48.738;9.126;2023-04-25T02:47:14;3.03;;;2.73;;
665;SDS011;315;48.738;9.126;2023-04-25T02:49:40;2.73;;;2.53;;
665;SDS011;315;48.738;9.126;2023-04-25T02:52:05;3.20;;;2.80;;
665;SDS011;315;48.738;9.126;2023-04-25T02:54:31;3.23;;;2.80;;
665;SDS011;315;48.738;9.126;2023-04-25T02:56:56;2.90;;;2.60;;
665;SDS011;315;48.738;9.126;2023-04-25T02:59:22;6.77;;;2.60;;
665;SDS011;315;48.738;9.126;2023-04-25T03:01:47;4.50;;;2.77;;
665;SDS011;315;48.738;9.126;2023-04-25T03:04:13;4.30;;;2.90;;
665;SDS011;315;48.738;9.126;2023-04-25T03:06:39;3.57;;;2.70;;
665;SDS011;315;48.738;9.126;2023-04-25T03:09:04;4.23;;;3.33;;
665;SDS011;315;48.738;9.126;2023-04-25T03:11:30;4.70;;;3.00;;
665;SDS011;315;48.738;9.126;2023-04-25T03:13:55;3.40;;;3.10;;
665;SDS011;315;48.738;9.126;2023-04-25T03:16:21;3.30;;;3.00;;
665;SDS011;315;48.738;9.126;2023-04-25T03:18:47;4.50;;;2.57;;
665;SDS011;315;48.738;9.126;2023-04-25T03:21:14;5.03;;;2.77;;
665;SDS011;315;48.738;9.126;2023-04-25T03:23:40;4.27;;;3.10;;
665;SDS011;315;48.738;9.126;2023-04-25T03:26:05;3.20;;;2.83;;
665;SDS011;315;48.738;9.126;2023-04-25T03:28:31;4.20;;;3.80;;
665;SDS011;315;48.738;9.126;2023-04-25T03:30:56;6.53;;;3.10;;
665;SDS011;315;48.738;9.126;2023-04-25T03:33:21;3.37;;;3.07;;
665;SDS011;315;48.738;9.126;2023-04-25T03:35:47;3.40;;;3.03;;
665;SDS011;315;48.738;9.126;2023-04-25T03:38:13;3.10;;;2.90;;
665;SDS011;315;48.738;9.126;2023-04-25T03:40:38;3.03;;;2.73;;
665;SDS011;315;48.738;9.126;2023-04-25T03:43:04;3.77;;;3.47;;
665;SDS011;315;48.738;9.126;2023-04-25T03:45:29;3.40;;;3.07;;
665;SDS011;315;48.738;9.126;2023-04-25T03:47:55;3.40;;;2.80;;
665;SDS011;315;48.738;9.126;2023-04-25T03:50:20;3.80;;;3.30;;
665;SDS011;315;48.738;9.126;2023-04-25T03:52:46;3.17;;;2.77;;
665;SDS011;315;48.738;9.126;2023-04-25T03:55:11;3.67;;;3.27;;
665;SDS011;315;48.738;9.126;2023-04-25T03:57:37;3.40;;;3.10;;
665;SDS011;315;48.738;9.126;2023-04-25T04:00:03;4.00;;;3.60;;
665;SDS011;315;48.738;9.126;2023-04-25T04:02:29;3.70;;;3.30;;
665;SDS011;315;48.738;9.126;2023-04-25T04:04:55;3.83;;;3.53;;
665;SDS011;315;48.738;9.126;2023-04-25T04:07:21;3.40;;;3.10;;
665;SDS011;315;48.738;9.126;2023-04-25T04:09:47;9.67;;;3.63;;
665;SDS011;315;48.738;9.126;2023-04-25T04:12:12;5.40;;;3.40;;
665;SDS011;315;48.738;9.126;2023-04-25T04:14:38;7.20;;;4.10;;
665;SDS011;315;48.738;9.126;2023-04-25T04:17:03;7.00;;;4.13;;
665;SDS011;315;48.738;9.126;2023-04-25T04:19:29;4.10;;;3.80;;
665;SDS011;315;48.738;9.126;2023-04-25T04:21:54;3.40;;;3.10;;
665;SDS011;315;48.738;9.126;2023-04-25T04:24:20;3.80;;;3.33;;
665;SDS011;315;48.738;9.126;2023-04-25T04:26:45;4.67;;;3.93;;
665;SDS011;315;48.738;9.126;2023-04-25T04:29:11;6.00;;;4.23;;
665;SDS011;315;48.738;9.126;2023-04-25T04:31:36;3.80;;;3.50;;
665;SDS011;315;48.738;9.126;2023-04-25T04:34:02;4.13;;;3.73;;
665;SDS011;315;48.738;9.126;2023-04-25T04:36:28;4.70;;;3.77;;
665;SDS011;315;48.738;9.126;2023-04-25T04:38:54;4.50;;;3.87;;
665;SDS011;315;48.738;9.126;2023-04-25T04:41:21;4.27;;;3.73;;
665;SDS011;315;48.738;9.126;2023-04-25T04:43:47;4.80;;;4.40;;
665;SDS011;315;48.738;9.126;2023-04-25T04:46:12;4.93;;;3.60;;
665;SDS011;315;48.738;9.126;2023-04-25T04:48:38;4.83;;;4.13;;
665;SDS011;315;48.738;9.126;2023-04-25T04:51:05;4.07;;;3.70;;
665;SDS011;315;48.738;9.126;2023-04-25T04:53:31;4.57;;;4.17;;
665;SDS011;315;48.738;9.126;2023-04-25T04:55:57;7.17;;;4.07;;
665;SDS011;315;48.738;9.126;2023-04-25T04:58:22;6.73;;;3.63;;
665;SDS011;315;48.738;9.126;2023-04-25T05:00:48;4.20;;;3.90;;
665;SDS011;315;48.738;9.126;2023-04-25T05:03:14;5.23;;;3.80;;
665;SDS011;315;48.738;9.126;2023-04-25T05:05:40;5.00;;;3.80;;
665;SDS011;315;48.738;9.126;2023-04-25T05:08:06;4.93;;;4.17;;
665;SDS011;315;48.738;9.126;2023-04-25T05:10:31;4.77;;;4.37;;
665;SDS011;315;48.738;9.126;2023-04-25T05:12:57;4.27;;;3.97;;
665;SDS011;315;48.738;9.126;2023-04-25T05:15:22;3.90;;;3.40;;
665;SDS011;315;48.738;9.126;2023-04-25T05:17:48;6.03;;;5.43;;
665;SDS011;315;48.738;9.126;2023-04-25T05:20:13;5.00;;;4.60;;
665;SDS011;315;48.738;9.126;2023-04-25T05:22:40;5.33;;;4.77;;
665;SDS011;315;48.738;9.126;2023-04-25T05:25:06;5.60;;;5.00;;
665;SDS011;315;48.738;9.126;2023-04-25T05:27:33;7.10;;;5.60;;
665;SDS011;315;48.738;9.126;2023-04-25T05:29:59;7.07;;;4.93;;
665;SDS011;315;48.738;9.126;2023-04-25T05:32:24;6.20;;;5.63;;
665;SDS011;315;48.738;9.126;2023-04-25T05:34:50;4.73;;;4.33;;
665;SDS011;315;48.738;9.126;2023-04-25T05:37:16;6.47;;;5.00;;
665;SDS011;315;48.738;9.126;2023-04-25T05:39:42;5.87;;;5.37;;
665;SDS011;315;48.738;9.126;2023-04-25T05:42:07;6.77;;;5.43;;
665;SDS011;315;48.738;9.126;2023-04-25T05:44:33;8.27;;;4.93;;
665;SDS011;315;48.738;9.126;2023-04-25T05:46:58;5.53;;;5.03;;
665;SDS011;315;48.738;9.126;2023-04-25T05:49:24;5.30;;;4.80;;
665;SDS011;315;48.738;9.126;2023-04-25T05:51:50;6.37;;;4.80;;
665;SDS011;315;48.738;9.126;2023-04-25T05:54:15;5.13;;;4.60;;
665;SDS011;315;48.738;9.126;2023-04-25T05:56:41;8.13;;;4.43;;
665;SDS011;315;48.738;9.126;2023-04-25T05:59:06;4.60;;;4.20;;
665;SDS011;315;48.738;9.126;2023-04-25T06:01:32;6.50;;;4.60;;
665;SDS011;315;48.738;9.126;2023-04-25T06:03:57;4.70;;;4.30;;
665;SDS011;315;48.738;9.126;2023-04-25T06:06:23;6.43;;;4.30;;
665;SDS011;315;48.738;9.126;2023-04-25T06:08:48;4.87;;;4.47;;
665;SDS011;315;48.738;9.126;2023-04-25T06:11:14;5.50;;;4.43;;
665;SDS011;315;48.738;9.126;2023-04-25T06:13:39;4.73;;;4.13;;
665;SDS011;315;48.738;9.126;2023-04-25T06:16:05;5.00;;;4.50;;
665;SDS011;315;48.738;9.126;2023-04-25T06:18:31;5.90;;;5.30;;
665;SDS011;315;48.738;9.126;2023-04-25T06:20:56;5.40;;;5.00;;
665;SDS011;315;48.738;9.126;2023-04-25T06:23:22;4.37;;;3.97;;
665;SDS011;315;48.738;9.126;2023-04-25T06:25:47;4.87;;;4.30;;
665;SDS011;315;48.738;9.126;2023-04-25T06:28:13;7.30;;;4.80;;
665;SDS011;315;48.738;9.126;2023-04-25T06:30:38;11.17;;;10.00;;
665;SDS011;315;48.738;9.126;2023-04-25T06:33:04;7.17;;;5.90;;
665;SDS011;315;48.738;9.126;2023-04-25T06:35:29;9.93;;;7.10;;
665;SDS011;315;48.738;9.126;2023-04-25T06:37:55;7.70;;;5.67;;
665;SDS011;315;48.738;9.126;2023-04-25T06:40:20;6.60;;;5.63;;
665;SDS011;315;48.738;9.126;2023-04-25T06:42:46;6.70;;;6.03;;
665;SDS011;315;48.738;9.126;2023-04-25T06:45:11;5.47;;;5.00;;
665;SDS011;315;48.738;9.126;2023-04-25T06:47:37;5.67;;;5.27;;
665;SDS011;315;48.738;9.126;2023-04-25T06:50:03;6.20;;;4.97;;
665;SDS011;315;48.738;9.126;2023-04-25T06:52:29;5.67;;;5.13;;
665;SDS011;315;48.738;9.126;2023-04-25T06:54:54;6.83;;;5.97;;
665;SDS011;315;48.738;9.126;2023-04-25T06:57:20;6.40;;;5.80;;
665;SDS011;315;48.738;9.126;2023-04-25T06:59:45;6.40;;;4.83;;
665;SDS011;315;48.738;9.126;2023-04-25T07:02:11;6.03;;;5.47;;
665;SDS011;315;48.738;9.126;2023-04-25T07:04:36;5.30;;;4.80;;
665;SDS011;315;48.738;9.126;2023-04-25T07:07:02;5.67;;;4.80;;
665;SDS011;315;48.738;9.126;2023-04-25T07:09:28;5.60;;;5.10;;
665;SDS011;315;48.738;9.126;2023-04-25T07:11:54;8.43;;;7.60;;
665;SDS011;315;48.738;9.126;2023-04-25T07:14:19;6.87;;;5.97;;
665;SDS011;315;48.738;9.126;2023-04-25T07:16:45;6.70;;;5.50;;
665;SDS011;315;48.738;9.126;2023-04-25T07:19:11;6.50;;;5.70;;
665;SDS011;315;48.738;9.126;2023-04-25T07:21:36;5.50;;;5.00;;
665;SDS011;315;48.738;9.126;2023-04-25T07:24:02;5.67;;;5.17;;
665;SDS011;315;48.738;9.126;2023-04-25T07:26:27;6.77;;;6.20;;
665;SDS011;315;48.738;9.126;2023-04-25T07:28:53;6.67;;;5.97;;
665;SDS011;315;48.738;9.126;2023-04-25T07:31:19;9.07;;;7.00;;
665;SDS011;315;48.738;9.126;2023-04-25T07:33:45;9.57;;;6.80;;
665;SDS011;315;48.738;9.126;2023-04-25T07:36:11;6.90;;;6.20;;
665;SDS011;315;48.738;9.126;2023-04-25T07:38:37;8.10;;;7.30;;
665;SDS011;315;48.738;9.126;2023-04-25T07:41:03;8.17;;;6.30;;
665;SDS011;315;48.738;9.126;2023-04-25T07:43:29;5.87;;;5.33;;
665;SDS011;315;48.738;9.126;2023-04-25T07:45:56;7.80;;;6.40;;
665;SDS011;315;48.738;9.126;2023-04-25T07:48:21;5.70;;;5.20;;
665;SDS011;315;48.738;9.126;2023-04-25T07:50:47;11.00;;;8.70;;
665;SDS011;315;48.738;9.126;2023-04-25T07:53:13;7.77;;;6.50;;
665;SDS011;315;48.738;9.126;2023-04-25T07:55:38;7.50;;;6.80;;
665;SDS011;315;48.738;9.126;2023-04-25T07:58:08;7.30;;;6.60;;
665;SDS011;315;48.738;9.126;2023-04-25T08:00:34;6.93;;;6.23;;
665;SDS011;315;48.738;9.126;2023-04-25T08:03:00;6.50;;;5.90;;
665;SDS011;315;48.738;9.126;2023-04-25T08:05:25;7.77;;;6.90;;
665;SDS011;315;48.738;9.126;2023-04-25T08:07:51;11.10;;;9.70;;
665;SDS011;315;48.738;9.126;2023-04-25T08:10:17;8.87;;;8.03;;
665;SDS011;315;48.738;9.126;2023-04-25T08:12:42;10.03;;;8.40;;
665;SDS011;315;48.738;9.126;2023-04-25T08:15:08;7.10;;;5.90;;
665;SDS011;315;48.738;9.126;2023-04-25T08:17:34;6.80;;;6.10;;
665;SDS011;315;48.738;9.126;2023-04-25T08:19:59;6.80;;;6.20;;
665;SDS011;315;48.738;9.126;2023-04-25T08:22:25;7.13;;;6.43;;
665;SDS011;315;48.738;9.126;2023-04-25T08:24:50;6.73;;;6.03;;
665;SDS011;315;48.738;9.126;2023-04-25T08:27:17;6.43;;;5.83;;
665;SDS011;315;48.738;9.126;2023-04-25T08:29:43;7.20;;;6.53;;
665;SDS011;315;48.738;9.126;2023-04-25T08:32:08;6.50;;;6.00;;
665;SDS011;315;48.738;9.126;2023-04-25T08:34:34;10.10;;;8.57;;
665;SDS011;315;48.738;9.126;2023-04-25T08:36:59;7.90;;;7.10;;
665;SDS011;315;48.738;9.126;2023-04-25T08:39:25;9.17;;;8.17;;
665;SDS011;315;48.738;9.126;2023-04-25T08:41:51;8.77;;;6.73;;
665;SDS011;315;48.738;9.126;2023-04-25T08:44:17;9.27;;;8.33;;
665;SDS011;315;48.738;9.126;2023-04-25T08:46:45;9.73;;;8.77;;
665;SDS011;315;48.738;9.126;2023-04-25T08:49:14;10.83;;;9.73;;
665;SDS011;315;48.738;9.126;2023-04-25T08:51:45;11.37;;;10.37;;
665;SDS011;315;48.738;9.126;2023-04-25T08:54:12;9.10;;;8.30;;
665;SDS011;315;48.738;9.126;2023-04-25T08:56:39;9.50;;;8.33;;
665;SDS011;315;48.738;9.126;2023-04-25T08:59:08;12.40;;;9.20;;
665;SDS011;315;48.738;9.126;2023-04-25T09:01:34;7.80;;;6.47;;
665;SDS011;315;48.738;9.126;2023-04-25T09:04:03;12.40;;;7.57;;
665;SDS011;315;48.738;9.126;2023-04-25T09:06:29;8.77;;;7.27;;
665;SDS011;315;48.738;9.126;2023-04-25T09:09:00;9.30;;;7.40;;
665;SDS011;315;48.738;9.126;2023-04-25T09:11:30;7.83;;;6.83;;
665;SDS011;315;48.738;9.126;2023-04-25T09:14:12;10.80;;;7.20;;
665;SDS011;315;48.738;9.126;2023-04-25T09:19:32;8.43;;;7.63;;
665;SDS011;315;48.738;9.126;2023-04-25T09:22:01;8.03;;;7.20;;
665;SDS011;315;48.738;9.126;2023-04-25T09:27:04;9.00;;;8.13;;
665;SDS011;315;48.738;9.126;2023-04-25T09:29:35;9.23;;;8.17;;
665;SDS011;315;48.738;9.126;2023-04-25T09:32:12;8.40;;;7.67;;
665;SDS011;315;48.738;9.126;2023-04-25T09:34:48;8.33;;;7.43;;
665;SDS011;315;48.738;9.126;2023-04-25T09:37:26;7.67;;;6.87;;
665;SDS011;315;48.738;9.126;2023-04-25T09:39:57;7.77;;;7.03;;
665;SDS011;315;48.738;9.126;2023-04-25T09:42:24;9.20;;;6.90;;
665;SDS011;315;48.738;9.126;2023-04-25T09:44:52;6.70;;;6.00;;
665;SDS011;315;48.738;9.126;2023-04-25T09:47:19;5.83;;;5.33;;
665;SDS011;315;48.738;9.126;2023-04-25T09:49:47;7.07;;;6.40;;
665;SDS011;315;48.738;9.126;2023-04-25T09:52:14;8.67;;;7.00;;
665;SDS011;315;48.738;9.126;2023-04-25T09:54:41;6.80;;;6.07;;
665;SDS011;315;48.738;9.126;2023-04-25T09:57:11;7.70;;;5.90;;
665;SDS011;315;48.738;9.126;2023-04-25T09:59:39;5.70;;;5.20;;
665;SDS011;315;48.738;9.126;2023-04-25T10:02:08;4.40;;;4.10;;
665;SDS011;315;48.738;9.126;2023-04-25T10:04:34;4.30;;;4.00;;
665;SDS011;315;48.738;9.126;2023-04-25T10:07:01;4.60;;;2.73;;
665;SDS011;315;48.738;9.126;2023-04-25T10:09:30;3.33;;;3.13;;
665;SDS011;315;48.738;9.126;2023-04-25T10:11:58;4.10;;;3.70;;
665;SDS011;315;48.738;9.126;2023-04-25T10:14:25;3.50;;;3.20;;
665;SDS011;315;48.738;9.126;2023-04-25T10:16:52;4.00;;;2.87;;
665;SDS011;315;48.738;9.126;2023-04-25T10:19:21;2.60;;;2.40;;
665;SDS011;315;48.738;9.126;2023-04-25T10:24:29;2.53;;;2.30;;
665;SDS011;315;48.738;9.126;2023-04-25T10:26:55;4.00;;;2.33;;
665;SDS011;315;48.738;9.126;2023-04-25T10:29:22;2.37;;;2.10;;
665;SDS011;315;48.738;9.126;2023-04-25T10:31:51;2.37;;;2.17;;
665;SDS011;315;48.738;9.126;2023-04-25T10:34:17;5.87;;;2.83;;
665;SDS011;315;48.738;9.126;2023-04-25T10:36:48;2.23;;;2.03;;
665;SDS011;315;48.738;9.126;2023-04-25T10:39:21;2.00;;;1.90;;
665;SDS011;315;48.738;9.126;2023-04-25T10:41:56;1.63;;;1.53;;
665;SDS011;315;48.738;9.126;2023-04-25T10:44:22;2.20;;;2.00;;
665;SDS011;315;48.738;9.126;2023-04-25T10:46:51;1.73;;;1.63;;
665;SDS011;315;48.738;9.126;2023-04-25T10:49:36;2.33;;;2.13;;
665;SDS011;315;48.738;9.126;2023-04-25T10:52:11;2.27;;;2.10;;
665;SDS011;315;48.738;9.126;2023-04-25T10:54:46;2.73;;;2.20;;
665;SDS011;315;48.738;9.126;2023-04-25T10:59:58;2.00;;;1.80;;
665;SDS011;315;48.738;9.126;2023-04-25T11:02:27;2.20;;;1.90;;
665;SDS011;315;48.738;9.126;2023-04-25T11:04:53;2.30;;;2.20;;
665;SDS011;315;48.738;9.126;2023-04-25T11:07:23;5.00;;;2.90;;
665;SDS011;315;48.738;9.126;2023-04-25T11:09:58;3.77;;;3.47;;
665;SDS011;315;48.738;9.126;2023-04-25T11:12:26;3.70;;;2.93;;
665;SDS011;315;48.738;9.126;2023-04-25T11:14:57;3.90;;;3.33;;
665;SDS011;315;48.738;9.126;2023-04-25T11:17:28;3.80;;;3.50;;
665;SDS011;315;48.738;9.126;2023-04-25T11:19:54;3.70;;;3.40;;
665;SDS011;315;48.738;9.126;2023-04-25T11:22:21;3.67;;;3.30;;
665;SDS011;315;48.738;9.126;2023-04-25T11:24:47;4.70;;;3.37;;
665;SDS011;315;48.738;9.126;2023-04-25T11:27:12;4.20;;;3.80;;
665;SDS011;315;48.738;9.126;2023-04-25T11:29:38;3.80;;;3.40;;
665;SDS011;315;48.738;9.126;2023-04-25T11:32:04;4.10;;;3.80;;
665;SDS011;315;48.738;9.126;2023-04-25T11:34:30;4.07;;;3.70;;
665;SDS011;315;48.738;9.126;2023-04-25T11:36:57;3.70;;;3.40;;
665;SDS011;315;48.738;9.126;2023-04-25T11:39:24;4.10;;;3.80;;
665;SDS011;315;48.738;9.126;2023-04-25T11:41:51;3.73;;;3.43;;
665;SDS011;315;48.738;9.126;2023-04-25T11:44:17;3.20;;;3.00;;
665;SDS011;315;48.738;9.126;2023-04-25T11:46:43;2.60;;;2.40;;
665;SDS011;315;48.738;9.126;2023-04-25T11:49:09;4.07;;;3.67;;
665;SDS011;315;48.738;9.126;2023-04-25T11:51:41;3.20;;;3.00;;
665;SDS011;315;48.738;9.126;2023-04-25T11:54:11;3.30;;;3.10;;
665;SDS011;315;48.738;9.126;2023-04-25T11:56:37;4.17;;;3.87;;
665;SDS011;315;48.738;9.126;2023-04-25T11:59:06;3.70;;;3.40;;
665;SDS011;315;48.738;9.126;2023-04-25T12:01:32;5.47;;;4.60;;
665;SDS011;315;48.738;9.126;2023-04-25T12:04:12;4.00;;;3.70;;
665;SDS011;315;48.738;9.126;2023-04-25T12:06:40;4.60;;;4.20;;
665;SDS011;315;48.738;9.126;2023-04-25T12:09:08;4.30;;;4.00;;
665;SDS011;315;48.738;9.126;2023-04-25T12:11:45;3.97;;;3.67;;
665;SDS011;315;48.738;9.126;2023-04-25T12:14:12;4.73;;;4.30;;
665;SDS011;315;48.738;9.126;2023-04-25T12:16:47;5.10;;;4.70;;
665;SDS011;315;48.738;9.126;2023-04-25T12:19:14;5.60;;;4.20;;
665;SDS011;315;48.738;9.126;2023-04-25T12:21:41;5.67;;;5.17;;
665;SDS011;315;48.738;9.126;2023-04-25T12:24:10;5.57;;;5.07;;
665;SDS011;315;48.738;9.126;2023-04-25T12:26:47;6.43;;;5.83;;
665;SDS011;315;48.738;9.126;2023-04-25T12:29:16;8.67;;;5.57;;
665;SDS011;315;48.738;9.126;2023-04-25T12:31:46;6.87;;;5.90;;
665;SDS011;315;48.738;9.126;2023-04-25T12:34:11;5.97;;;5.47;;
665;SDS011;315;48.738;9.126;2023-04-25T12:36:37;6.37;;;5.77;;
665;SDS011;315;48.738;9.126;2023-04-25T12:39:03;8.70;;;5.63;;
665;SDS011;315;48.738;9.126;2023-04-25T12:41:29;6.97;;;6.33;;
665;SDS011;315;48.738;9.126;2023-04-25T12:43:55;6.40;;;5.80;;
665;SDS011;315;48.738;9.126;2023-04-25T12:46:20;7.10;;;6.20;;
665;SDS011;315;48.738;9.126;2023-04-25T12:48:47;7.30;;;6.70;;
665;SDS011;315;48.738;9.126;2023-04-25T12:51:13;6.70;;;5.67;;
665;SDS011;315;48.738;9.126;2023-04-25T12:53:38;7.30;;;6.60;;
665;SDS011;315;48.738;9.126;2023-04-25T12:56:05;8.13;;;6.30;;
665;SDS011;315;48.738;9.126;2023-04-25T12:58:34;7.40;;;6.20;;
665;SDS011;315;48.738;9.126;2023-04-25T13:01:00;7.77;;;6.50;;
665;SDS011;315;48.738;9.126;2023-04-25T13:03:26;8.37;;;6.40;;
665;SDS011;315;48.738;9.126;2023-04-25T13:05:51;5.90;;;5.40;;
665;SDS011;315;48.738;9.126;2023-04-25T13:08:17;5.90;;;5.40;;
665;SDS011;315;48.738;9.126;2023-04-25T13:10:43;6.97;;;6.27;;
665;SDS011;315;48.738;9.126;2023-04-25T13:13:09;6.47;;;5.87;;
665;SDS011;315;48.738;9.126;2023-04-25T13:15:35;6.80;;;5.60;;
665;SDS011;315;48.738;9.126;2023-04-25T13:18:01;7.67;;;6.80;;
665;SDS011;315;48.738;9.126;2023-04-25T13:20:27;7.27;;;6.37;;
665;SDS011;315;48.738;9.126;2023-04-25T13:22:53;6.50;;;5.90;;
665;SDS011;315;48.738;9.126;2023-04-25T13:25:18;6.10;;;5.60;;
665;SDS011;315;48.738;9.126;2023-04-25T13:27:44;7.27;;;6.53;;
665;SDS011;315;48.738;9.126;2023-04-25T13:30:10;6.60;;;5.90;;
665;SDS011;315;48.738;9.126;2023-04-25T13:32:36;6.50;;;5.90;;
665;SDS011;315;48.738;9.126;2023-04-25T13:35:03;6.97;;;6.30;;
665;SDS011;315;48.738;9.126;2023-04-25T13:37:29;7.70;;;7.00;;
665;SDS011;315;48.738;9.126;2023-04-25T13:39:57;6.80;;;6.20;;
665;SDS011;315;48.738;9.126;2023-04-25T13:42:23;7.00;;;6.40;;
665;SDS011;315;48.738;9.126;2023-04-25T13:44:49;7.30;;;6.60;;
665;SDS011;315;48.738;9.126;2023-04-25T13:47:15;8.27;;;7.50;;
665;SDS011;315;48.738;9.126;2023-04-25T13:49:40;7.90;;;7.20;;
665;SDS011;315;48.738;9.126;2023-04-25T13:52:06;8.80;;;8.10;;
665;SDS011;315;48.738;9.126;2023-04-25T13:54:32;10.53;;;8.20;;
665;SDS011;315;48.738;9.126;2023-04-25T13:56:58;10.40;;;9.43;;
665;SDS011;315;48.738;9.126;2023-04-25T13:59:24;11.00;;;9.23;;
665;SDS011;315;48.738;9.126;2023-04-25T14:01:50;9.13;;;8.33;;
665;SDS011;315;48.738;9.126;2023-04-25T14:04:16;8.30;;;7.60;;
665;SDS011;315;48.738;9.126;2023-04-25T14:06:42;9.27;;;8.40;;
665;SDS011;315;48.738;9.126;2023-04-25T14:09:07;12.00;;;8.83;;
665;SDS011;315;48.738;9.126;2023-04-25T14:11:35;8.83;;;7.23;;
665;SDS011;315;48.738;9.126;2023-04-25T14:14:01;9.70;;;8.90;;
665;SDS011;315;48.738;9.126;2023-04-25T14:16:27;9.00;;;8.20;;
665;SDS011;315;48.738;9.126;2023-04-25T14:18:53;9.90;;;8.40;;
665;SDS011;315;48.738;9.126;2023-04-25T14:21:19;9.50;;;7.37;;
665;SDS011;315;48.738;9.126;2023-04-25T14:23:45;8.13;;;7.33;;
665;SDS011;315;48.738;9.126;2023-04-25T14:26:12;9.27;;;8.40;;
665;SDS011;315;48.738;9.126;2023-04-25T14:28:37;8.73;;;7.93;;
665;SDS011;315;48.738;9.126;2023-04-25T14:31:03;6.87;;;6.17;;
665;SDS011;315;48.738;9.126;2023-04-25T14:33:29;7.33;;;6.63;;
665;SDS011;315;48.738;9.126;2023-04-25T14:35:55;7.10;;;6.50;;
665;SDS011;315;48.738;9.126;2023-04-25T14:38:21;11.33;;;5.83;;
665;SDS011;315;48.738;9.126;2023-04-25T14:40:48;6.43;;;5.83;;
665;SDS011;315;48.738;9.126;2023-04-25T14:43:14;6.03;;;5.53;;
665;SDS011;315;48.738;9.126;2023-04-25T14:45:40;5.07;;;4.67;;
665;SDS011;315;48.738;9.126;2023-04-25T14:48:05;15.37;;;6.03;;
665;SDS011;315;48.738;9.126;2023-04-25T14:50:31;10.77;;;4.67;;
665;SDS011;315;48.738;9.126;2023-04-25T14:52:57;6.03;;;5.17;;
665;SDS011;315;48.738;9.126;2023-04-25T14:55:25;5.70;;;5.10;;
665;SDS011;315;48.738;9.126;2023-04-25T14:57:54;6.43;;;5.60;;
665;SDS011;315;48.738;9.126;2023-04-25T15:00:20;6.67;;;6.17;;
665;SDS011;315;48.738;9.126;2023-04-25T15:02:46;5.27;;;4.77;;
665;SDS011;315;48.738;9.126;2023-04-25T15:05:13;5.27;;;4.83;;
665;SDS011;315;48.738;9.126;2023-04-25T15:07:39;6.50;;;4.90;;
665;SDS011;315;48.738;9.126;2023-04-25T15:10:07;5.30;;;4.90;;
665;SDS011;315;48.738;9.126;2023-04-25T15:12:38;5.67;;;5.07;;
665;SDS011;315;48.738;9.126;2023-04-25T15:15:05;5.80;;;5.27;;
665;SDS011;315;48.738;9.126;2023-04-25T15:17:36;4.80;;;4.40;;
665;SDS011;315;48.738;9.126;2023-04-25T15:20:12;6.03;;;5.40;;
665;SDS011;315;48.738;9.126;2023-04-25T15:22:38;4.87;;;4.47;;
665;SDS011;315;48.738;9.126;2023-04-25T15:25:05;5.83;;;5.27;;
665;SDS011;315;48.738;9.126;2023-04-25T15:27:32;5.73;;;5.23;;
665;SDS011;315;48.738;9.126;2023-04-25T15:29:59;6.20;;;4.13;;
665;SDS011;315;48.738;9.126;2023-04-25T15:32:25;5.10;;;4.50;;
665;SDS011;315;48.738;9.126;2023-04-25T15:34:50;4.13;;;3.73;;
665;SDS011;315;48.738;9.126;2023-04-25T15:37:16;5.20;;;4.40;;
665;SDS011;315;48.738;9.126;2023-04-25T15:39:43;7.43;;;5.63;;
665;SDS011;315;48.738;9.126;2023-04-25T15:42:09;6.43;;;4.73;;
665;SDS011;315;48.738;9.126;2023-04-25T15:44:34;5.70;;;5.20;;
665;SDS011;315;48.738;9.126;2023-04-25T15:47:00;5.20;;;4.70;;
665;SDS011;315;48.738;9.126;2023-04-25T15:49:25;4.93;;;4.53;;
665;SDS011;315;48.738;9.126;2023-04-25T15:51:52;6.03;;;4.73;;